Time;durP1;ratioP1;P1;durP2;ratioP2;P2;SDS_P1;SDS_P2;PMS_P1;PMS_P2;Temp;Humidity;BMP_temperature;BMP_pressure;BME280_temperature;BME280_humidity;BME280_pressure;Samples;Min_cycle;Max_cycle;Signal;HPM_P1;HPM_P2
2021/04/16 00:00:38;;;;;;;2.03;1.17;;;2.60;99.90;;;;;;5097642;28;20531;-60
2021/04/16 00:03:06;;;;;;;0.50;0.50;;;2.50;99.90;;;;;;5098309;28;20207;-60
2021/04/16 00:05:35;;;;;;;0.63;0.63;;;2.60;99.90;;;;;;5098124;28;20269;-61
2021/04/16 00:08:03;;;;;;;0.38;0.38;;;3.20;99.90;;;;;;5098192;28;20512;-59
2021/04/16 00:10:50;;;;;;;1.23;1.13;;;2.60;99.90;;;;;;5098223;28;20231;-59
2021/04/16 00:13:19;;;;;;;2.38;1.48;;;2.60;99.90;;;;;;5098130;28;20228;-60
2021/04/16 00:15:47;;;;;;;1.30;1.20;;;2.90;99.90;;;;;;5097991;28;20238;-60
2021/04/16 00:18:17;;;;;;;8.80;1.60;;;2.70;99.90;;;;;;5097797;28;20517;-60
2021/04/16 00:20:44;;;;;;;1.10;1.08;;;2.60;99.90;;;;;;5097649;28;20211;-60
2021/04/16 00:23:11;;;;;;;1.40;1.30;;;2.60;99.90;;;;;;5092899;28;20208;-60
2021/04/16 00:25:38;;;;;;;0.80;0.80;;;2.60;99.90;;;;;;5097388;28;20210;-60
2021/04/16 00:28:07;;;;;;;0.80;0.80;;;2.60;99.90;;;;;;5098343;28;20260;-60
2021/04/16 00:30:39;;;;;;;0.60;0.60;;;1.70;99.90;;;;;;5083250;28;20226;-60
2021/04/16 00:33:07;;;;;;;0.30;0.30;;;2.60;99.90;;;;;;5097771;28;20206;-60
2021/04/16 00:35:35;;;;;;;0.75;0.75;;;2.80;99.90;;;;;;5096030;28;20199;-60
2021/04/16 00:38:03;;;;;;;3.20;0.85;;;2.60;99.90;;;;;;5086938;28;20231;-60
2021/04/16 00:40:42;;;;;;;1.00;0.80;;;2.80;99.90;;;;;;5097607;28;20210;-60
2021/04/16 00:43:11;;;;;;;0.85;0.85;;;2.50;99.90;;;;;;5086956;28;20202;-60
2021/04/16 00:45:39;;;;;;;0.40;0.40;;;2.50;99.90;;;;;;5097618;28;20223;-60
2021/04/16 00:48:13;;;;;;;0.50;0.50;;;2.50;99.90;;;;;;5085561;28;20397;-60
2021/04/16 00:50:51;;;;;;;1.23;1.23;;;2.60;99.90;;;;;;5097540;28;20238;-60
2021/04/16 00:53:20;;;;;;;0.93;0.93;;;2.70;99.90;;;;;;5079167;28;20268;-60
2021/04/16 00:55:47;;;;;;;2.13;1.98;;;2.70;99.90;;;;;;5093255;28;20222;-60
2021/04/16 00:58:15;;;;;;;1.30;1.20;;;2.60;99.90;;;;;;5097805;28;20241;-60
2021/04/16 01:00:43;;;;;;;0.77;0.77;;;2.60;99.90;;;;;;5097162;28;20253;-59
2021/04/16 01:03:10;;;;;;;0.95;0.93;;;2.60;99.90;;;;;;5097338;28;20211;-60
2021/04/16 01:05:37;;;;;;;1.35;1.25;;;2.50;99.90;;;;;;5096964;28;20248;-60
2021/04/16 01:08:05;;;;;;;0.30;0.30;;;3.60;99.90;;;;;;5097672;28;20546;-60
2021/04/16 01:10:32;;;;;;;1.73;1.35;;;2.60;99.90;;;;;;5091202;28;20261;-61
2021/04/16 01:12:59;;;;;;;0.80;0.80;;;2.60;99.90;;;;;;5077700;28;20476;-59
2021/04/16 01:15:31;;;;;;;1.98;1.88;;;2.50;99.90;;;;;;5063560;28;20521;-59
2021/04/16 01:18:04;;;;;;;1.20;1.20;;;2.60;99.90;;;;;;5093932;28;20214;-59
2021/04/16 01:20:35;;;;;;;0.55;0.55;;;2.60;99.90;;;;;;5083005;28;20215;-59
2021/04/16 01:23:06;;;;;;;1.27;1.17;;;2.90;99.90;;;;;;5097393;28;20268;-60
2021/04/16 01:25:33;;;;;;;3.15;1.10;;;2.70;99.90;;;;;;5095316;28;20198;-59
2021/04/16 01:27:59;;;;;;;3.75;1.95;;;2.70;99.90;;;;;;5096912;28;20482;-60
2021/04/16 01:30:30;;;;;;;4.05;1.65;;;2.70;99.90;;;;;;5096938;28;20642;-60
2021/04/16 01:32:57;;;;;;;0.82;0.80;;;2.60;99.90;;;;;;5091095;28;20268;-60
2021/04/16 01:35:33;;;;;;;1.20;1.05;;;2.60;99.90;;;;;;5092723;28;20205;-60
2021/04/16 01:38:05;;;;;;;2.55;2.03;;;2.60;99.90;;;;;;5068874;28;20215;-59
2021/04/16 01:40:32;;;;;;;5.32;2.95;;;2.60;99.90;;;;;;5096157;28;20229;-60
2021/04/16 01:42:58;;;;;;;0.52;0.52;;;2.70;99.90;;;;;;5096583;28;20536;-59
2021/04/16 01:45:29;;;;;;;1.63;1.63;;;2.70;99.90;;;;;;5082833;28;20203;-59
2021/04/16 01:48:01;;;;;;;0.40;0.40;;;2.70;99.90;;;;;;5076393;28;20223;-61
2021/04/16 01:50:29;;;;;;;1.35;1.27;;;2.60;99.90;;;;;;5076489;28;20231;-59
2021/04/16 01:53:00;;;;;;;0.88;0.88;;;2.60;99.90;;;;;;5076568;28;20211;-59
2021/04/16 01:55:27;;;;;;;1.52;1.05;;;2.60;99.90;;;;;;5085803;28;20221;-60
2021/04/16 01:57:54;;;;;;;1.00;1.00;;;2.50;99.90;;;;;;5082442;28;20255;-59
2021/04/16 02:00:35;;;;;;;0.60;0.60;;;2.50;99.90;;;;;;5097238;28;20211;-60
2021/04/16 02:03:02;;;;;;;0.60;0.60;;;2.60;99.90;;;;;;5085052;28;20206;-60
2021/04/16 02:05:31;;;;;;;2.17;2.03;;;2.60;99.90;;;;;;5096977;28;20206;-60
2021/04/16 02:07:57;;;;;;;3.92;1.55;;;2.60;99.90;;;;;;5096574;28;20214;-60
2021/04/16 02:10:24;;;;;;;1.50;1.40;;;4.00;99.90;;;;;;5090281;28;20439;-60
2021/04/16 02:12:52;;;;;;;2.65;1.48;;;2.20;99.90;;;;;;5095592;28;20207;-60
2021/04/16 02:15:18;;;;;;;1.38;1.17;;;2.80;99.90;;;;;;5088705;28;20213;-60
2021/04/16 02:17:45;;;;;;;1.55;1.45;;;2.70;99.90;;;;;;5100845;28;20225;-60
2021/04/16 02:20:18;;;;;;;0.95;0.95;;;2.70;99.90;;;;;;5084645;28;20236;-60
2021/04/16 02:22:44;;;;;;;0.52;0.52;;;2.70;99.90;;;;;;5100338;28;20252;-60
2021/04/16 02:25:12;;;;;;;1.35;1.15;;;3.00;99.90;;;;;;5100367;28;20274;-60
2021/04/16 02:27:39;;;;;;;2.65;2.45;;;2.60;99.90;;;;;;5100016;28;20198;-60
2021/04/16 02:30:17;;;;;;;1.10;0.60;;;2.60;99.90;;;;;;5100022;28;20246;-60
2021/04/16 02:32:43;;;;;;;0.60;0.50;;;2.70;99.90;;;;;;5087082;28;20202;-60
2021/04/16 02:35:11;;;;;;;1.20;1.20;;;2.70;99.90;;;;;;5097847;28;20215;-60
2021/04/16 02:37:37;;;;;;;0.45;0.45;;;2.70;99.90;;;;;;5085216;28;20204;-60
2021/04/16 02:40:07;;;;;;;3.78;1.58;;;2.70;99.90;;;;;;5097218;28;20635;-59
2021/04/16 02:42:34;;;;;;;0.30;0.30;;;2.70;99.90;;;;;;5099669;28;20508;-59
2021/04/16 02:45:01;;;;;;;2.78;1.13;;;2.70;99.90;;;;;;5099775;28;20218;-59
2021/04/16 02:47:27;;;;;;;1.70;1.13;;;2.70;99.90;;;;;;5099491;28;20586;-60
2021/04/16 02:49:54;;;;;;;2.65;2.35;;;2.80;99.90;;;;;;5099250;28;20278;-61
2021/04/16 02:52:21;;;;;;;2.30;1.90;;;2.70;99.90;;;;;;5098855;28;20202;-60
2021/04/16 02:54:47;;;;;;;0.77;0.65;;;2.80;99.90;;;;;;5097171;28;20224;-60
2021/04/16 02:57:14;;;;;;;0.50;0.50;;;2.80;99.90;;;;;;5096602;28;20234;-60
2021/04/16 02:59:41;;;;;;;1.58;1.58;;;2.70;99.90;;;;;;5096575;28;20203;-60
2021/04/16 03:02:07;;;;;;;0.90;0.90;;;2.70;99.90;;;;;;5099402;28;20206;-60
2021/04/16 03:04:36;;;;;;;2.42;1.50;;;2.70;99.90;;;;;;5096385;28;20441;-59
2021/04/16 03:07:02;;;;;;;1.35;1.25;;;2.70;99.90;;;;;;5099008;28;20228;-59
2021/04/16 03:09:29;;;;;;;1.10;0.85;;;2.70;99.90;;;;;;5097854;28;20258;-60
2021/04/16 03:11:55;;;;;;;1.52;1.42;;;2.70;99.90;;;;;;5099177;28;20555;-60
2021/04/16 03:14:22;;;;;;;1.00;1.00;;;2.70;99.90;;;;;;5097729;28;20215;-61
2021/04/16 03:16:49;;;;;;;2.47;1.13;;;2.90;99.90;;;;;;5099449;28;20437;-60
2021/04/16 03:19:16;;;;;;;0.75;0.75;;;2.90;99.90;;;;;;5090413;28;20211;-60
2021/04/16 03:21:43;;;;;;;3.58;3.28;;;2.90;99.90;;;;;;5093047;28;20253;-60
2021/04/16 03:24:10;;;;;;;0.80;0.80;;;2.90;99.90;;;;;;5099310;28;20238;-58
2021/04/16 03:26:37;;;;;;;1.30;1.10;;;2.80;99.90;;;;;;5099048;28;20211;-59
2021/04/16 03:29:05;;;;;;;1.10;1.10;;;2.80;99.90;;;;;;5098695;28;20208;-59
2021/04/16 03:31:32;;;;;;;1.13;1.13;;;2.80;99.90;;;;;;5086596;28;20208;-60
2021/04/16 03:34:00;;;;;;;0.93;0.93;;;2.70;99.90;;;;;;5081232;28;20241;-59
2021/04/16 03:36:29;;;;;;;1.50;0.85;;;2.80;99.90;;;;;;5099135;28;20211;-60
2021/04/16 03:38:56;;;;;;;1.23;0.70;;;2.80;99.90;;;;;;5095690;28;20207;-60
2021/04/16 03:41:23;;;;;;;1.13;1.13;;;2.80;99.90;;;;;;5098514;28;20390;-59
2021/04/16 03:43:50;;;;;;;0.40;0.40;;;2.80;99.90;;;;;;5098464;28;20216;-60
2021/04/16 03:46:17;;;;;;;0.65;0.50;;;2.80;99.90;;;;;;5098735;28;20214;-60
2021/04/16 03:48:44;;;;;;;1.60;1.10;;;2.80;99.90;;;;;;5097754;28;20778;-59
2021/04/16 03:51:11;;;;;;;1.60;1.25;;;2.90;99.90;;;;;;5098192;28;20216;-59
2021/04/16 03:53:40;;;;;;;2.55;2.40;;;2.90;99.90;;;;;;5098130;28;20211;-59
2021/04/16 03:56:08;;;;;;;0.98;0.93;;;3.30;99.90;;;;;;5093181;28;20207;-59
2021/04/16 03:58:39;;;;;;;1.25;1.20;;;2.90;99.90;;;;;;5095462;28;20207;-59
2021/04/16 04:01:06;;;;;;;2.95;1.25;;;2.90;99.90;;;;;;5095067;28;20506;-59
2021/04/16 04:03:34;;;;;;;1.05;1.05;;;2.90;99.90;;;;;;5097966;28;20246;-59
2021/04/16 04:06:03;;;;;;;1.02;1.00;;;2.90;99.90;;;;;;5097294;28;20490;-60
2021/04/16 04:08:30;;;;;;;0.65;0.55;;;2.90;99.90;;;;;;5098146;28;20250;-61
2021/04/16 04:10:57;;;;;;;1.05;0.93;;;3.10;99.90;;;;;;5097691;28;20235;-60
2021/04/16 04:13:23;;;;;;;1.15;1.05;;;3.20;99.90;;;;;;5095129;28;20242;-59
2021/04/16 04:15:50;;;;;;;3.15;2.03;;;2.90;99.90;;;;;;5096926;28;20212;-60
2021/04/16 04:18:27;;;;;;;0.63;0.63;;;2.90;99.90;;;;;;5095700;28;20214;-59
2021/04/16 04:20:54;;;;;;;0.70;0.70;;;3.00;99.90;;;;;;5077982;28;20212;-59
2021/04/16 04:23:20;;;;;;;1.08;1.08;;;2.90;99.90;;;;;;5077447;28;20223;-59
2021/04/16 04:25:47;;;;;;;0.30;0.30;;;3.20;99.90;;;;;;5083692;28;20196;-60
2021/04/16 04:28:14;;;;;;;1.13;1.02;;;1.30;99.90;;;;;;5098218;28;20265;-60
2021/04/16 04:30:40;;;;;;;1.25;1.15;;;3.00;99.90;;;;;;5097727;28;20260;-59
2021/04/16 04:33:07;;;;;;;1.02;0.85;;;2.90;99.90;;;;;;5097905;28;20242;-59
2021/04/16 04:35:34;;;;;;;0.85;0.85;;;3.00;99.90;;;;;;5085480;28;20214;-60
2021/04/16 04:38:01;;;;;;;2.25;1.17;;;3.10;99.90;;;;;;5098062;28;20258;-59
2021/04/16 04:40:28;;;;;;;2.22;1.90;;;3.50;99.90;;;;;;5096921;28;20254;-59
2021/04/16 04:42:55;;;;;;;1.35;1.27;;;2.50;99.90;;;;;;5097744;28;20213;-59
2021/04/16 04:45:23;;;;;;;1.55;1.45;;;3.20;99.90;;;;;;5097217;28;20209;-59
2021/04/16 04:47:50;;;;;;;1.25;1.15;;;3.10;99.90;;;;;;5097603;28;20449;-60
2021/04/16 04:50:19;;;;;;;3.33;1.88;;;3.10;99.90;;;;;;5097105;28;20238;-60
2021/04/16 04:52:46;;;;;;;2.05;1.95;;;3.10;99.90;;;;;;5092082;28;20386;-61
2021/04/16 04:55:19;;;;;;;1.20;1.20;;;2.70;99.90;;;;;;5097935;28;20204;-61
2021/04/16 04:57:46;;;;;;;1.42;1.35;;;3.20;99.90;;;;;;5088529;28;20255;-59
2021/04/16 05:00:15;;;;;;;1.77;1.67;;;3.20;99.90;;;;;;5097093;28;20211;-60
2021/04/16 05:02:42;;;;;;;0.85;0.85;;;3.20;99.90;;;;;;5090884;28;20217;-60
2021/04/16 05:05:10;;;;;;;1.00;1.00;;;3.30;99.90;;;;;;5097560;28;20215;-60
2021/04/16 05:07:37;;;;;;;5.50;1.50;;;3.20;99.90;;;;;;5091985;28;20208;-60
2021/04/16 05:10:05;;;;;;;3.42;3.13;;;3.30;99.90;;;;;;5097846;28;20254;-59
2021/04/16 05:12:32;;;;;;;0.68;0.47;;;;;;;;;;5092077;28;20522;-61
2021/04/16 05:14:59;;;;;;;1.45;1.35;;;3.30;99.90;;;;;;5097216;28;20252;-60
2021/04/16 05:17:25;;;;;;;1.33;1.23;;;3.30;99.90;;;;;;5092273;28;20208;-59
2021/04/16 05:19:52;;;;;;;1.00;1.00;;;;;;;;;;5094771;28;20282;-60
2021/04/16 05:22:19;;;;;;;2.13;1.60;;;3.30;99.90;;;;;;5091250;28;20203;-60
2021/04/16 05:24:46;;;;;;;2.03;1.38;;;3.30;99.90;;;;;;5088386;28;20226;-59
2021/04/16 05:27:22;;;;;;;1.67;1.10;;;3.30;99.90;;;;;;5092930;28;20225;-60
2021/04/16 05:29:49;;;;;;;1.05;1.05;;;3.40;99.90;;;;;;5097386;28;20242;-61
2021/04/16 05:32:16;;;;;;;0.68;0.63;;;3.30;99.90;;;;;;5097308;28;20250;-60
2021/04/16 05:34:44;;;;;;;1.05;0.95;;;3.40;99.90;;;;;;5083838;28;20204;-59
2021/04/16 05:37:12;;;;;;;0.60;0.60;;;3.50;99.90;;;;;;5095038;28;20201;-61
2021/04/16 05:39:38;;;;;;;2.08;1.98;;;3.50;99.90;;;;;;5095780;28;20208;-61
2021/04/16 05:42:05;;;;;;;1.02;1.02;;;3.40;99.90;;;;;;5078707;28;20416;-60
2021/04/16 05:44:32;;;;;;;1.90;1.52;;;3.50;99.90;;;;;;5096882;28;20409;-61
2021/04/16 05:46:59;;;;;;;2.35;2.15;;;3.50;99.90;;;;;;5098773;28;20233;-62
2021/04/16 05:49:30;;;;;;;2.08;1.98;;;3.50;99.90;;;;;;5100434;28;20235;-62
2021/04/16 05:51:56;;;;;;;0.75;0.75;;;3.50;99.90;;;;;;5100296;28;20531;-60
2021/04/16 05:54:23;;;;;;;0.57;0.57;;;3.60;99.90;;;;;;5097833;28;20510;-60
2021/04/16 05:56:50;;;;;;;1.95;1.25;;;3.60;99.90;;;;;;5100178;28;20231;-61
2021/04/16 05:59:16;;;;;;;1.38;1.27;;;3.60;99.90;;;;;;5100463;28;20204;-61
2021/04/16 06:01:43;;;;;;;1.27;1.20;;;3.60;99.90;;;;;;5100330;28;20208;-60
2021/04/16 06:04:18;;;;;;;0.82;0.82;;;3.60;99.90;;;;;;5094936;28;20224;-65
2021/04/16 06:06:45;;;;;;;6.35;2.28;;;3.60;99.90;;;;;;5079069;28;20236;-61
2021/04/16 06:09:12;;;;;;;3.15;1.98;;;3.70;99.90;;;;;;5088095;28;20282;-61
2021/04/16 06:11:39;;;;;;;1.08;1.08;;;3.70;99.90;;;;;;5089131;28;20257;-60
2021/04/16 06:14:06;;;;;;;5.40;2.15;;;3.70;99.90;;;;;;5097860;28;20296;-60
2021/04/16 06:16:36;;;;;;;1.25;1.15;;;3.60;99.90;;;;;;5099574;28;20215;-60
2021/04/16 06:19:06;;;;;;;1.13;1.08;;;3.60;99.90;;;;;;5100055;28;20258;-62
2021/04/16 06:21:34;;;;;;;1.05;0.98;;;3.70;99.90;;;;;;5100436;28;20208;-61
2021/04/16 06:24:01;;;;;;;4.50;1.60;;;4.10;99.90;;;;;;5100267;28;20385;-61
2021/04/16 06:26:28;;;;;;;1.30;1.23;;;4.10;99.90;;;;;;5099564;28;20212;-62
2021/04/16 06:28:54;;;;;;;1.67;1.58;;;3.80;99.90;;;;;;5095700;28;20235;-62
2021/04/16 06:31:23;;;;;;;0.95;0.95;;;;;;;;;;5078888;28;20242;-62
2021/04/16 06:33:51;;;;;;;1.00;0.55;;;3.80;99.90;;;;;;5084335;28;20586;-62
2021/04/16 06:36:18;;;;;;;2.28;0.88;;;;;;;;;;5100519;28;20208;-60
2021/04/16 06:38:45;;;;;;;1.50;0.88;;;3.90;99.90;;;;;;5099195;28;20247;-61
2021/04/16 06:41:23;;;;;;;1.27;1.23;;;4.00;99.90;;;;;;5100010;28;20418;-61
2021/04/16 06:43:53;;;;;;;1.92;1.73;;;4.00;99.90;;;;;;5099041;28;20279;-60
2021/04/16 06:47:07;;;;;;;0.65;0.65;;;3.80;99.90;;;;;;5100229;28;20212;-60
2021/04/16 06:49:37;;;;;;;0.88;0.88;;;4.10;99.90;;;;;;5095455;28;20393;-60
2021/04/16 06:52:14;;;;;;;1.33;1.23;;;4.30;99.90;;;;;;5098974;28;20414;-60
2021/04/16 06:54:48;;;;;;;0.60;0.60;;;4.30;99.90;;;;;;5089037;28;20404;-60
2021/04/16 06:57:44;;;;;;;1.00;0.82;;;4.30;99.90;;;;;;5098799;28;20296;-61
2021/04/16 07:00:14;;;;;;;1.95;1.85;;;4.20;99.90;;;;;;5091549;28;20277;-60
2021/04/16 07:02:55;;;;;;;1.25;1.15;;;4.20;99.90;;;;;;5099018;28;20239;-61
2021/04/16 07:05:34;;;;;;;1.23;1.23;;;4.40;99.90;;;;;;5099346;28;20582;-60
2021/04/16 07:08:03;;;;;;;2.20;1.20;;;;;;;;;;5097211;28;20205;-60
2021/04/16 07:10:39;;;;;;;0.40;0.40;;;4.10;99.90;;;;;;5098429;28;20236;-60
2021/04/16 07:13:26;;;;;;;1.35;0.75;;;4.20;99.90;;;;;;5093963;28;20204;-61
2021/04/16 07:15:54;;;;;;;0.73;0.73;;;4.20;99.90;;;;;;5081390;28;20209;-62
2021/04/16 07:18:28;;;;;;;1.10;1.05;;;3.90;99.90;;;;;;5098841;28;20254;-60
2021/04/16 07:20:55;;;;;;;1.75;1.65;;;4.20;99.90;;;;;;5091126;28;20393;-60
2021/04/16 07:23:24;;;;;;;0.40;0.40;;;4.30;99.90;;;;;;5074404;28;20527;-60
2021/04/16 07:26:24;;;;;;;2.10;1.90;;;4.40;99.90;;;;;;5085557;28;20235;-61
2021/04/16 07:28:54;;;;;;;2.63;1.27;;;4.30;99.90;;;;;;5098152;28;20255;-61
2021/04/16 07:31:28;;;;;;;1.50;1.40;;;4.40;99.90;;;;;;5088572;28;20230;-63
2021/04/16 07:33:57;;;;;;;2.65;1.63;;;4.30;99.90;;;;;;5084582;28;20215;-60
2021/04/16 07:36:43;;;;;;;1.27;1.17;;;4.30;99.90;;;;;;5080675;28;20220;-60
2021/04/16 07:39:16;;;;;;;4.35;1.92;;;4.40;99.90;;;;;;5096731;28;20209;-61
2021/04/16 07:41:50;;;;;;;2.85;2.65;;;4.40;99.90;;;;;;5098738;28;20528;-62
2021/04/16 07:44:36;;;;;;;2.10;1.38;;;4.40;99.90;;;;;;5098697;28;20209;-60
2021/04/16 07:47:13;;;;;;;1.95;1.75;;;4.40;99.90;;;;;;5098134;28;20296;-61
2021/04/16 07:49:54;;;;;;;1.50;1.13;;;4.50;99.90;;;;;;5087499;28;20236;-61
2021/04/16 07:52:36;;;;;;;0.70;0.70;;;4.60;99.90;;;;;;5094745;28;20296;-60
2021/04/16 07:55:02;;;;;;;0.95;0.95;;;4.50;99.90;;;;;;5094881;28;20209;-62
2021/04/16 07:57:30;;;;;;;1.45;1.35;;;4.50;99.90;;;;;;5094950;28;20233;-61
2021/04/16 08:00:03;;;;;;;1.23;1.10;;;4.50;99.90;;;;;;5098545;28;20205;-62
2021/04/16 08:02:42;;;;;;;1.05;1.05;;;4.30;99.90;;;;;;5097465;28;20202;-62
2021/04/16 08:05:24;;;;;;;2.13;1.95;;;4.50;99.90;;;;;;5095543;28;20196;-60
2021/04/16 08:08:22;;;;;;;2.30;2.10;;;4.50;99.90;;;;;;5097475;28;20215;-60
2021/04/16 08:10:55;;;;;;;0.73;0.73;;;4.50;99.90;;;;;;5094937;28;20233;-61
2021/04/16 08:13:29;;;;;;;1.60;1.50;;;4.50;99.90;;;;;;5097833;28;20214;-60
2021/04/16 08:16:14;;;;;;;0.82;0.82;;;4.50;99.90;;;;;;5097666;28;20207;-61
2021/04/16 08:18:44;;;;;;;1.13;1.10;;;4.50;99.90;;;;;;5090092;28;20212;-60
2021/04/16 08:21:22;;;;;;;0.55;0.55;;;4.60;99.90;;;;;;5098229;28;20420;-61
2021/04/16 08:24:00;;;;;;;1.35;1.20;;;4.60;99.90;;;;;;5081784;28;20275;-61
2021/04/16 08:26:31;;;;;;;1.80;1.48;;;4.40;99.90;;;;;;5087531;28;20233;-61
2021/04/16 08:29:02;;;;;;;1.27;1.17;;;4.60;99.90;;;;;;5097536;28;20247;-61
2021/04/16 08:31:40;;;;;;;1.80;1.70;;;4.30;99.90;;;;;;5098208;28;20319;-61
2021/04/16 08:34:13;;;;;;;1.38;1.27;;;4.70;99.90;;;;;;5085790;28;20250;-60
2021/04/16 08:36:42;;;;;;;1.63;1.52;;;4.60;99.90;;;;;;5094102;28;20388;-61
2021/04/16 08:39:45;;;;;;;3.20;2.97;;;4.50;99.90;;;;;;5076935;28;20416;-60
2021/04/16 08:42:19;;;;;;;0.93;0.93;;;4.70;99.90;;;;;;5082101;28;20203;-60
2021/04/16 08:44:54;;;;;;;2.25;0.98;;;4.70;99.90;;;;;;5097230;28;20208;-60
2021/04/16 08:47:32;;;;;;;1.10;1.10;;;4.60;99.90;;;;;;5097262;28;20235;-61
2021/04/16 08:50:01;;;;;;;0.77;0.77;;;4.60;99.90;;;;;;5097560;28;20232;-61
2021/04/16 08:52:48;;;;;;;2.15;1.92;;;4.70;99.90;;;;;;5097681;28;20282;-60
2021/04/16 08:55:42;;;;;;;2.72;2.53;;;4.80;99.90;;;;;;5086347;28;20324;-62
2021/04/16 08:58:09;;;;;;;1.90;1.80;;;;;;;;;;5086188;28;20514;-61
2021/04/16 09:00:52;;;;;;;1.02;0.95;;;4.70;99.90;;;;;;5097997;28;20284;-60
2021/04/16 09:03:51;;;;;;;3.63;1.52;;;4.80;99.90;;;;;;5098248;28;20197;-61
2021/04/16 09:06:38;;;;;;;2.13;1.98;;;;;;;;;;5095493;28;20512;-60
2021/04/16 09:09:12;;;;;;;2.20;2.10;;;4.70;99.90;;;;;;5096987;28;20507;-59
2021/04/16 09:11:46;;;;;;;0.47;0.47;;;8.40;99.90;;;;;;5087782;28;20251;-60
2021/04/16 09:14:28;;;;;;;1.08;1.08;;;4.80;99.90;;;;;;5096734;28;20252;-62
2021/04/16 09:17:00;;;;;;;1.27;1.17;;;4.80;99.90;;;;;;5096154;28;20209;-60
2021/04/16 09:19:29;;;;;;;1.30;1.20;;;4.80;99.90;;;;;;5096678;28;20233;-60
2021/04/16 09:22:05;;;;;;;1.25;0.90;;;4.90;99.90;;;;;;5101413;28;20235;-60
2021/04/16 09:24:49;;;;;;;0.47;0.47;;;4.80;99.90;;;;;;5101025;28;20243;-60
2021/04/16 09:27:30;;;;;;;1.40;1.30;;;4.80;99.90;;;;;;5101002;28;20200;-61
2021/04/16 09:30:06;;;;;;;0.50;0.50;;;4.90;99.90;;;;;;5104392;28;20592;-60
2021/04/16 09:32:32;;;;;;;0.88;0.88;;;4.90;99.90;;;;;;5100666;28;20213;-61
2021/04/16 09:35:08;;;;;;;1.15;1.00;;;5.10;99.90;;;;;;5100492;28;20206;-62
2021/04/16 09:37:41;;;;;;;0.73;0.73;;;5.00;99.90;;;;;;5100518;28;20269;-61
2021/04/16 09:40:22;;;;;;;2.53;2.25;;;5.00;99.90;;;;;;5097891;28;20210;-60
2021/04/16 09:42:51;;;;;;;3.00;1.23;;;5.00;99.90;;;;;;5100558;28;20205;-61
2021/04/16 09:45:30;;;;;;;0.60;0.60;;;5.00;99.90;;;;;;5099610;28;20220;-61
2021/04/16 09:48:06;;;;;;;1.05;1.05;;;4.90;99.90;;;;;;5096774;28;20534;-61
2021/04/16 09:50:45;;;;;;;2.13;1.13;;;4.90;99.90;;;;;;5099963;28;20286;-63
2021/04/16 09:53:31;;;;;;;1.30;1.27;;;4.90;99.90;;;;;;5101199;28;20202;-60
2021/04/16 09:56:00;;;;;;;0.50;0.50;;;5.00;99.90;;;;;;5099590;28;20220;-61
2021/04/16 09:58:30;;;;;;;2.25;1.15;;;5.00;99.90;;;;;;5100271;28;20486;-61
2021/04/16 10:00:57;;;;;;;0.77;0.77;;;5.10;99.90;;;;;;5100468;28;20212;-61
2021/04/16 10:03:33;;;;;;;1.58;1.48;;;5.10;99.90;;;;;;5096836;28;20249;-60
2021/04/16 10:06:39;;;;;;;1.33;1.33;;;5.10;99.90;;;;;;5097898;28;20255;-61
2021/04/16 10:09:12;;;;;;;0.95;0.95;;;5.20;99.90;;;;;;5080183;28;20241;-61
2021/04/16 10:12:30;;;;;;;0.98;0.60;;;5.10;99.90;;;;;;5091432;28;20238;-60
2021/04/16 10:14:58;;;;;;;0.57;0.57;;;;;;;;;;5066420;28;20600;-60
2021/04/16 10:17:26;;;;;;;0.70;0.70;;;5.00;99.90;;;;;;5087645;28;20209;-60
2021/04/16 10:20:10;;;;;;;2.08;1.98;;;5.10;99.90;;;;;;5097667;28;20218;-60
2021/04/16 10:22:38;;;;;;;0.90;0.90;;;5.20;99.90;;;;;;5100302;28;20266;-62
2021/04/16 12:38:54;;;;;;;2.50;2.40;;;6.00;99.90;;;;;;5097016;28;20210;-60
2021/04/16 12:41:34;;;;;;;1.35;1.33;;;6.00;99.90;;;;;;5095841;28;20220;-60
2021/04/16 12:44:06;;;;;;;1.25;1.23;;;6.00;99.90;;;;;;5097483;28;20445;-61
2021/04/16 12:46:35;;;;;;;1.45;1.35;;;6.10;99.90;;;;;;5097181;28;20538;-64
2021/04/16 12:49:04;;;;;;;1.45;1.35;;;6.10;99.90;;;;;;5097487;28;20272;-61
2021/04/16 12:51:31;;;;;;;1.80;1.48;;;6.00;99.90;;;;;;5097159;28;20232;-61
2021/04/16 12:53:58;;;;;;;1.38;1.27;;;6.00;99.90;;;;;;5097299;28;20519;-61
2021/04/16 12:56:39;;;;;;;2.47;2.33;;;6.10;99.90;;;;;;5100453;28;20240;-60
2021/04/16 12:59:12;;;;;;;7.53;1.45;;;6.30;99.90;;;;;;5092530;28;20202;-61
2021/04/16 13:01:40;;;;;;;0.80;0.80;;;6.30;99.90;;;;;;5097060;28;20280;-61
2021/04/16 13:04:06;;;;;;;1.20;1.20;;;6.20;99.90;;;;;;5084953;28;20217;-60
2021/04/16 13:06:40;;;;;;;1.90;1.80;;;6.30;99.90;;;;;;5083612;28;20551;-61
2021/04/16 13:09:10;;;;;;;1.15;1.00;;;6.20;99.90;;;;;;5089967;28;20206;-62
2021/04/16 13:11:37;;;;;;;1.42;1.33;;;6.00;99.90;;;;;;5096241;28;20314;-60
2021/04/16 13:14:04;;;;;;;1.52;1.50;;;6.10;99.90;;;;;;5083009;28;20501;-61
2021/04/16 13:16:32;;;;;;;1.20;1.10;;;6.10;99.90;;;;;;5097283;28;20202;-59
2021/04/16 13:19:02;;;;;;;4.00;1.75;;;6.20;99.90;;;;;;5096023;28;20217;-61
2021/04/16 13:21:35;;;;;;;1.58;1.00;;;6.20;99.90;;;;;;5097078;28;20508;-60
2021/04/16 13:24:03;;;;;;;3.50;2.05;;;6.30;99.90;;;;;;5079439;28;20206;-60
2021/04/16 13:26:30;;;;;;;2.72;2.53;;;6.20;99.90;;;;;;5079256;28;20210;-61
2021/04/16 13:28:57;;;;;;;1.90;1.80;;;6.20;99.90;;;;;;5080847;28;20433;-61
2021/04/16 13:31:27;;;;;;;1.33;1.23;;;6.10;99.90;;;;;;5097521;28;20424;-60
2021/04/16 13:33:54;;;;;;;0.93;0.93;;;;;;;;;;5097165;28;20210;-60
2021/04/16 13:36:25;;;;;;;1.58;1.23;;;6.00;99.90;;;;;;5094056;28;20210;-60
2021/04/16 13:38:52;;;;;;;3.47;3.17;;;;;;;;;;5079333;28;20225;-62
2021/04/16 13:41:20;;;;;;;0.50;0.50;;;6.00;99.90;;;;;;5094442;28;20242;-61
2021/04/16 13:43:52;;;;;;;2.90;2.35;;;6.10;99.90;;;;;;5096671;28;21567;-61
2021/04/16 13:46:26;;;;;;;1.40;1.30;;;6.20;99.90;;;;;;5097244;28;20524;-62
2021/04/16 13:48:55;;;;;;;0.80;0.80;;;6.10;99.90;;;;;;5096468;28;20230;-61
2021/04/16 13:51:24;;;;;;;1.23;1.15;;;6.10;99.90;;;;;;5096590;28;20271;-62
2021/04/16 13:53:55;;;;;;;2.35;2.15;;;6.30;99.90;;;;;;5091652;28;20501;-60
2021/04/16 13:56:25;;;;;;;4.25;1.80;;;;;;;;;;5092699;28;20424;-60
2021/04/16 13:58:52;;;;;;;1.80;1.70;;;;;;;;;;5096388;28;20493;-61
2021/04/16 14:01:19;;;;;;;1.40;1.30;;;;;;;;;;5094565;28;20206;-61
2021/04/16 14:03:49;;;;;;;1.02;1.02;;;6.30;99.90;;;;;;5096730;28;20435;-61
2021/04/16 14:06:24;;;;;;;2.00;1.90;;;6.20;99.90;;;;;;5095450;28;20431;-61
2021/04/16 14:08:53;;;;;;;1.55;1.50;;;6.10;99.90;;;;;;5104719;28;20220;-61
2021/04/16 14:11:20;;;;;;;2.47;2.28;;;6.10;99.90;;;;;;5099283;28;20233;-63
2021/04/16 14:13:47;;;;;;;1.90;1.80;;;;;;;;;;5099636;28;20202;-61
2021/04/16 14:16:37;;;;;;;1.27;1.17;;;5.90;99.90;;;;;;5099739;28;20206;-61
2021/04/16 14:19:13;;;;;;;1.88;1.77;;;5.80;99.90;;;;;;5097929;28;20504;-61
2021/04/16 14:21:42;;;;;;;0.65;0.65;;;5.70;99.90;;;;;;5100070;28;20752;-61
2021/04/16 14:24:11;;;;;;;0.65;0.65;;;5.50;99.90;;;;;;5100061;28;20265;-61
2021/04/16 14:26:41;;;;;;;0.73;0.73;;;5.40;99.90;;;;;;5090627;28;20203;-62
2021/04/16 14:29:08;;;;;;;0.80;0.80;;;;;;;;;;5098782;28;20252;-60
2021/04/16 14:31:40;;;;;;;0.75;0.75;;;5.50;99.90;;;;;;5093916;28;20271;-60
2021/04/16 14:34:15;;;;;;;0.93;0.93;;;5.30;99.90;;;;;;5099786;28;20243;-62
2021/04/16 14:36:42;;;;;;;0.70;0.70;;;;;;;;;;5099154;28;20229;-61
2021/04/16 14:39:09;;;;;;;0.82;0.82;;;;;;;;;;5081602;28;20251;-61
2021/04/16 14:41:37;;;;;;;0.80;0.80;;;5.50;99.90;;;;;;5099863;28;20209;-60
2021/04/16 14:44:06;;;;;;;1.35;1.30;;;5.50;99.90;;;;;;5102026;28;20276;-61
2021/04/16 14:46:34;;;;;;;3.20;1.60;;;;;;;;;;5100682;28;20213;-61
2021/04/16 14:49:02;;;;;;;0.60;0.60;;;;;;;;;;5096650;28;20456;-61
2021/04/16 14:51:30;;;;;;;1.20;1.20;;;5.60;99.90;;;;;;5099095;28;20274;-62
2021/04/16 14:54:06;;;;;;;1.60;1.17;;;5.50;99.90;;;;;;5099333;28;20277;-61
2021/04/16 14:56:33;;;;;;;1.17;1.17;;;;;;;;;;5095849;28;20244;-62
2021/04/16 14:59:25;;;;;;;1.23;1.05;;;5.70;99.90;;;;;;5096339;28;20213;-61
2021/04/16 15:01:55;;;;;;;0.80;0.80;;;;;;;;;;5087407;28;20210;-61
2021/04/16 15:04:23;;;;;;;1.77;1.67;;;;;;;;;;5096511;28;20233;-60
2021/04/16 15:06:57;;;;;;;1.30;1.17;;;5.60;99.90;;;;;;5098896;28;20203;-61
2021/04/16 15:09:49;;;;;;;1.98;1.88;;;5.60;99.90;;;;;;5098750;28;20292;-60
2021/04/16 15:12:20;;;;;;;1.85;1.30;;;5.80;99.90;;;;;;5093038;28;20225;-61
2021/04/16 15:14:48;;;;;;;1.00;1.00;;;5.80;99.90;;;;;;5099277;28;20250;-61
2021/04/16 15:17:15;;;;;;;1.27;1.20;;;;;;;;;;5099102;28;20202;-63
2021/04/16 15:19:46;;;;;;;0.85;0.85;;;5.70;99.90;;;;;;5097953;28;20240;-61
2021/04/16 15:22:18;;;;;;;1.15;1.05;;;5.60;99.90;;;;;;5098321;28;20412;-60
2021/04/16 15:24:46;;;;;;;1.65;1.58;;;5.70;99.90;;;;;;5099389;28;20301;-60
2021/04/16 15:27:37;;;;;;;1.80;0.80;;;5.60;99.90;;;;;;5098840;28;20206;-60
2021/04/16 15:30:14;;;;;;;0.77;0.77;;;5.70;99.90;;;;;;5098988;28;20206;-61
2021/04/16 15:32:43;;;;;;;1.30;1.30;;;5.60;99.90;;;;;;5091590;28;20614;-61
2021/04/16 15:49:17;;;;;;;1.40;1.33;;;5.60;99.90;;;;;;5085344;28;20387;-61
2021/04/16 15:51:44;;;;;;;1.15;1.13;;;5.40;99.90;;;;;;5097443;28;20328;-61